Time;durP1;ratioP1;P1;durP2;ratioP2;P2;SDS_P1;SDS_P2;PMS_P1;PMS_P2;Temp;Humidity;BMP_temperature;BMP_pressure;BME280_temperature;BME280_humidity;BME280_pressure;Samples;Min_cycle;Max_cycle;Signal;HPM_P1;HPM_P2
2023/07/14 00:01:29;;;;;;;12.55;7.65;;;;;;;25.83;51.32;94931.16;5086834;28;20020;-83
2023/07/14 00:03:55;;;;;;;12.90;7.50;;;;;;;25.78;51.22;94929.22;5101034;28;20403;-78
2023/07/14 00:06:21;;;;;;;12.40;7.75;;;;;;;25.75;51.62;94933.09;5085752;28;20051;-86
2023/07/14 00:08:46;;;;;;;14.02;7.43;;;;;;;25.69;51.75;94933.16;5085953;28;20496;-86
2023/07/14 00:11:14;;;;;;;16.40;7.80;;;;;;;25.68;51.88;94928.81;5085012;28;20099;-87
2023/07/14 00:13:40;;;;;;;12.00;7.38;;;;;;;25.57;52.02;94921.31;5086946;28;20103;-86
2023/07/14 00:16:27;;;;;;;13.43;8.20;;;;;;;25.60;52.01;94923.06;5086140;28;20131;-87
2023/07/14 00:18:53;;;;;;;13.23;8.05;;;;;;;25.58;52.02;94911.59;5087713;28;20083;-87
2023/07/14 00:21:26;;;;;;;13.00;7.53;;;;;;;25.56;52.01;94914.16;5101916;28;20051;-87
2023/07/14 00:23:57;;;;;;;12.70;8.23;;;;;;;25.49;52.40;94912.00;5087320;28;20028;-87
2023/07/14 00:26:23;;;;;;;14.60;7.40;;;;;;;25.49;52.44;94919.69;5084776;28;20030;-87
2023/07/14 00:28:49;;;;;;;15.05;7.10;;;;;;;25.47;52.42;94908.97;5087191;28;20024;-86
2023/07/14 00:31:17;;;;;;;15.73;8.07;;;;;;;25.44;52.62;94907.22;5089948;28;20435;-86
2023/07/14 00:33:50;;;;;;;13.70;7.43;;;;;;;25.39;52.46;94911.63;5090571;28;20039;-86
2023/07/14 00:36:17;;;;;;;12.05;7.75;;;;;;;25.40;52.79;94923.63;5091444;28;20414;-86
2023/07/14 00:38:42;;;;;;;17.85;8.10;;;;;;;25.40;52.40;94937.72;5117844;28;20611;-86
2023/07/14 00:41:18;;;;;;;11.05;7.68;;;;;;;25.29;51.41;94941.47;5092834;28;20032;-86
2023/07/14 00:43:45;;;;;;;10.98;7.45;;;;;;;25.25;51.70;94957.13;5073427;28;20537;-86
2023/07/14 00:46:22;;;;;;;11.25;7.57;;;;;;;25.18;51.81;94963.38;5089579;28;20051;-86
2023/07/14 00:48:47;;;;;;;12.77;7.45;;;;;;;25.11;51.62;94965.50;5090611;28;20501;-86
2023/07/14 00:51:14;;;;;;;9.82;7.60;;;;;;;25.14;51.69;94958.81;5110481;28;20057;-86
2023/07/14 00:53:41;;;;;;;12.32;8.00;;;;;;;25.04;51.67;94957.66;5107736;28;20023;-84
2023/07/14 00:56:31;;;;;;;10.80;7.68;;;;;;;24.94;51.40;94964.94;5091099;28;20020;-86
2023/07/14 00:58:57;;;;;;;10.73;7.72;;;;;;;24.92;51.56;94978.00;5106266;28;20028;-84
2023/07/14 01:01:22;;;;;;;12.98;8.50;;;;;;;24.88;51.58;94984.69;5105880;28;20094;-86
2023/07/14 01:03:50;;;;;;;15.52;8.43;;;;;;;24.82;51.78;94975.56;5089920;28;20020;-85
2023/07/14 01:06:25;;;;;;;14.35;7.90;;;;;;;24.82;51.57;94974.81;5089272;28;20035;-85
2023/07/14 01:09:10;;;;;;;14.02;8.18;;;;;;;24.72;51.75;94993.34;5088035;28;20028;-85
2023/07/14 01:11:43;;;;;;;16.90;7.90;;;;;;;24.73;51.88;94998.44;5105755;28;20146;-86
2023/07/14 01:14:29;;;;;;;13.93;7.75;;;;;;;24.64;52.02;95001.59;5089860;28;20031;-86
2023/07/14 01:16:55;;;;;;;11.57;7.57;;;;;;;24.64;51.56;94988.31;5106323;28;20066;-86
2023/07/14 01:19:29;;;;;;;8.90;6.82;;;;;;;24.59;51.66;94983.50;5096485;28;20024;-87
2023/07/14 01:22:00;;;;;;;12.38;7.50;;;;;;;24.52;51.70;94972.09;5118775;28;20031;-87
2023/07/14 01:24:37;;;;;;;12.13;6.95;;;;;;;24.50;52.07;94969.06;5124060;28;20492;-86
2023/07/14 01:27:07;;;;;;;12.40;7.75;;;;;;;24.48;52.27;94969.59;5122486;28;20028;-86
2023/07/14 01:29:33;;;;;;;9.43;7.10;;;;;;;24.42;52.38;94974.50;5119585;28;20188;-86
2023/07/14 01:31:59;;;;;;;11.48;7.07;;;;;;;24.40;52.34;94965.84;5118243;28;20024;-87
2023/07/14 01:34:25;;;;;;;10.55;7.30;;;;;;;24.38;52.38;94959.25;5105737;28;20039;-86
2023/07/14 01:36:50;;;;;;;10.63;7.40;;;;;;;24.26;52.47;94962.16;5107013;28;20020;-87
2023/07/14 01:39:17;;;;;;;12.18;6.95;;;;;;;24.23;52.71;94954.00;5105104;28;20024;-87
2023/07/14 01:41:42;;;;;;;10.82;6.50;;;;;;;24.21;52.37;94953.78;5105225;28;20054;-87
2023/07/14 01:44:17;;;;;;;10.77;6.97;;;;;;;24.17;52.64;94956.13;5105208;28;20028;-87
2023/07/14 01:46:42;;;;;;;10.38;7.38;;;;;;;24.18;52.73;94955.59;5089899;28;20448;-86
2023/07/14 01:49:13;;;;;;;10.90;7.47;;;;;;;24.18;52.94;94949.22;5090054;28;20020;-86
2023/07/14 01:51:42;;;;;;;11.65;7.15;;;;;;;24.18;53.17;94957.63;5104508;28;20059;-87
2023/07/14 01:54:28;;;;;;;12.15;7.15;;;;;;;24.17;52.96;94970.94;5094774;28;20509;-87
2023/07/14 01:56:56;;;;;;;12.05;7.13;;;;;;;24.17;52.52;94981.41;5087785;28;20165;-85
2023/07/14 01:59:25;;;;;;;12.48;7.45;;;;;;;24.15;52.94;94989.59;5104987;28;20559;-87
2023/07/14 02:01:52;;;;;;;8.35;6.72;;;;;;;24.16;53.00;94993.94;5088127;28;20474;-86
2023/07/14 02:04:29;;;;;;;11.32;7.88;;;;;;;24.13;52.78;94990.09;5104932;28;20056;-86
2023/07/14 02:06:58;;;;;;;9.35;7.00;;;;;;;24.11;52.79;95001.09;5105769;28;20035;-87
2023/07/14 02:09:24;;;;;;;13.32;7.50;;;;;;;24.15;52.68;95006.44;5103792;28;20035;-86
2023/07/14 02:11:54;;;;;;;11.30;7.45;;;;;;;24.10;52.73;95003.16;5089850;28;20028;-86
2023/07/14 02:14:20;;;;;;;11.63;7.60;;;;;;;24.08;52.86;95008.53;5104264;28;20028;-87
2023/07/14 02:16:47;;;;;;;11.75;7.32;;;;;;;24.10;52.70;95011.59;5105316;28;20414;-87
2023/07/14 02:19:20;;;;;;;10.48;7.43;;;;;;;24.06;52.42;95013.91;5087520;28;20022;-87
2023/07/14 02:21:46;;;;;;;13.55;8.23;;;;;;;24.07;52.33;95039.94;5117050;28;20024;-87
2023/07/14 02:24:18;;;;;;;12.45;6.78;;;;;;;24.04;52.14;95041.75;5090025;28;20086;-87
2023/07/14 02:26:46;;;;;;;12.10;6.78;;;;;;;24.04;52.23;95049.44;5087586;28;20086;-86
2023/07/14 02:29:11;;;;;;;12.45;6.78;;;;;;;24.08;51.87;95038.66;5089420;28;20024;-87
2023/07/14 02:31:42;;;;;;;12.10;7.30;;;;;;;24.04;51.90;95046.63;5104334;28;20042;-87
2023/07/14 02:34:13;;;;;;;9.30;7.07;;;;;;;24.08;51.85;95044.25;5104513;28;20063;-87
2023/07/14 02:37:01;;;;;;;9.18;7.10;;;;;;;24.03;51.45;95054.28;5087448;28;20073;-87
2023/07/14 02:39:30;;;;;;;10.82;6.90;;;;;;;24.10;51.51;95059.31;5088113;28;20516;-86
2023/07/14 02:41:57;;;;;;;14.00;6.93;;;;;;;24.14;51.18;95061.06;5089200;28;20074;-87
2023/07/14 02:44:36;;;;;;;11.95;6.28;;;;;;;24.14;51.15;95061.81;5103583;28;20102;-87
2023/07/14 02:47:17;;;;;;;11.93;7.85;;;;;;;24.15;50.90;95066.19;5104078;28;20031;-87
2023/07/14 02:49:48;;;;;;;14.23;7.70;;;;;;;24.22;50.59;95059.97;5103974;28;20446;-86
2023/07/14 02:52:13;;;;;;;13.07;6.93;;;;;;;24.34;50.38;95066.25;5087833;28;20092;-86
2023/07/14 02:54:40;;;;;;;11.60;6.38;;;;;;;24.42;49.81;95055.97;5104561;28;20032;-86
2023/07/14 02:57:05;;;;;;;10.48;6.60;;;;;;;24.54;49.69;95068.63;5092524;28;20470;-86
2023/07/14 02:59:31;;;;;;;11.60;6.47;;;;;;;24.57;49.44;95067.59;5088736;28;20107;-86
2023/07/14 03:01:56;;;;;;;10.70;6.85;;;;;;;24.67;49.17;95072.88;5086205;28;20048;-86
2023/07/14 03:04:23;;;;;;;12.30;6.65;;;;;;;24.72;48.56;95069.25;5088032;28;20027;-86
2023/07/14 03:06:49;;;;;;;10.82;6.35;;;;;;;24.76;48.37;95069.69;5087448;28;20031;-86
2023/07/14 03:09:14;;;;;;;12.95;7.00;;;;;;;24.81;47.76;95074.50;5086286;28;20024;-85
2023/07/14 03:11:40;;;;;;;10.52;6.20;;;;;;;24.83;47.26;95064.25;5099986;28;20020;-86
2023/07/14 03:14:06;;;;;;;9.27;6.38;;;;;;;24.92;46.36;95076.41;5107580;28;20426;-85
2023/07/14 03:16:31;;;;;;;11.38;6.45;;;;;;;24.92;46.42;95077.19;5087717;28;20407;-87
2023/07/14 03:18:57;;;;;;;11.10;7.10;;;;;;;25.00;45.65;95086.53;5087536;28;20029;-86
2023/07/14 03:21:22;;;;;;;11.77;6.40;;;;;;;25.03;45.23;95082.69;5088695;28;20506;-86
2023/07/14 03:23:48;;;;;;;10.35;6.20;;;;;;;25.15;44.40;95080.50;5089074;28;20024;-88
2023/07/14 03:26:13;;;;;;;11.77;6.53;;;;;;;25.23;42.97;95083.47;5088714;28;20028;-86
2023/07/14 03:28:39;;;;;;;12.68;6.45;;;;;;;25.24;42.62;95091.41;5085654;28;20035;-86
2023/07/14 03:31:04;;;;;;;9.70;6.07;;;;;;;25.29;42.43;95092.59;5087432;28;20027;-86
2023/07/14 03:33:32;;;;;;;12.18;6.43;;;;;;;25.33;40.80;95093.84;5102686;28;20020;-85
2023/07/14 03:36:09;;;;;;;9.07;6.38;;;;;;;25.42;40.01;95090.66;5086586;28;20433;-85
2023/07/14 03:38:38;;;;;;;13.35;6.57;;;;;;;25.53;39.34;95095.38;5102593;28;20055;-86
2023/07/14 03:41:03;;;;;;;10.60;6.40;;;;;;;25.58;39.07;95088.91;5085355;28;20032;-86
2023/07/14 03:43:29;;;;;;;14.55;6.80;;;;;;;25.64;39.10;95089.59;5102667;28;20020;-85
2023/07/14 03:45:56;;;;;;;12.88;7.15;;;;;;;25.69;38.78;95088.75;5102046;28;20032;-87
2023/07/14 03:48:22;;;;;;;11.45;6.70;;;;;;;25.75;38.01;95093.56;5085142;28;20028;-87
2023/07/14 03:50:48;;;;;;;10.70;6.65;;;;;;;25.83;38.11;95108.56;5085432;28;20066;-84
2023/07/14 03:53:13;;;;;;;12.50;7.20;;;;;;;25.87;37.92;95112.59;5102275;28;20019;-86
2023/07/14 03:55:39;;;;;;;14.15;6.40;;;;;;;25.87;38.25;95126.66;5086821;28;20028;-86
2023/07/14 03:58:04;;;;;;;11.00;6.63;;;;;;;25.85;38.85;95120.78;5086559;28;20021;-86
2023/07/14 04:00:31;;;;;;;10.35;7.15;;;;;;;25.84;40.38;95130.53;5104213;28;20039;-86
2023/07/14 04:02:56;;;;;;;11.02;6.43;;;;;;;25.77;41.01;95131.16;5086750;28;20031;-86
2023/07/14 04:05:22;;;;;;;11.52;7.38;;;;;;;25.78;40.64;95131.91;5099033;28;20016;-86
2023/07/14 04:07:47;;;;;;;12.55;7.10;;;;;;;25.75;40.38;95142.19;5087394;28;20028;-87
2023/07/14 04:10:13;;;;;;;13.75;7.28;;;;;;;25.79;40.09;95151.09;5086806;28;20150;-80
2023/07/14 04:12:38;;;;;;;12.38;7.28;;;;;;;25.70;40.25;95159.91;5102073;28;20076;-80
2023/07/14 04:15:04;;;;;;;11.60;7.15;;;;;;;25.67;40.33;95163.75;5101553;28;20043;-80
2023/07/14 04:17:30;;;;;;;12.05;7.00;;;;;;;25.69;40.78;95170.41;5086288;28;20020;-80
2023/07/14 04:19:56;;;;;;;13.70;6.93;;;;;;;25.64;40.94;95174.03;5086217;28;20020;-80
2023/07/14 04:22:22;;;;;;;14.20;7.00;;;;;;;25.68;41.31;95179.34;5086045;28;20482;-79
2023/07/14 04:24:47;;;;;;;16.20;7.85;;;;;;;25.61;41.73;95185.59;5085826;28;20028;-79
2023/07/14 04:27:13;;;;;;;17.38;8.07;;;;;;;25.62;42.13;95170.97;5101607;28;20028;-79
2023/07/14 04:29:39;;;;;;;13.73;7.55;;;;;;;25.62;42.39;95178.66;5086106;28;20091;-79
2023/07/14 04:32:05;;;;;;;13.65;7.75;;;;;;;25.59;42.93;95193.81;5101818;28;20047;-79
2023/07/14 04:34:31;;;;;;;14.40;7.93;;;;;;;25.55;43.14;95207.41;5086170;28;20020;-80
2023/07/14 04:36:56;;;;;;;16.92;7.32;;;;;;;25.53;43.46;95207.97;5086136;28;20669;-78
2023/07/14 04:39:23;;;;;;;13.13;7.72;;;;;;;25.50;43.88;95213.88;5086211;28;20516;-79
2023/07/14 04:41:49;;;;;;;10.77;7.45;;;;;;;25.44;44.30;95216.75;5101250;28;20574;-78
2023/07/14 04:44:16;;;;;;;12.63;7.72;;;;;;;25.37;44.68;95231.41;5084763;28;20048;-79
2023/07/14 04:46:43;;;;;;;17.02;7.63;;;;;;;25.36;44.96;95233.47;5084109;28;20501;-78
2023/07/14 04:49:10;;;;;;;13.13;7.47;;;;;;;25.38;44.96;95230.13;5083961;28;20103;-77
2023/07/14 04:51:36;;;;;;;11.73;7.18;;;;;;;25.38;45.01;95242.13;5100572;28;20085;-78
2023/07/14 04:54:02;;;;;;;9.77;7.35;;;;;;;25.40;45.38;95244.41;5086118;28;20505;-78
2023/07/14 04:56:29;;;;;;;13.05;8.30;;;;;;;25.41;45.93;95238.28;5106162;28;20043;-78
2023/07/14 04:58:54;;;;;;;11.95;7.55;;;;;;;25.46;45.75;95241.53;5088485;28;20024;-77
2023/07/14 05:01:22;;;;;;;16.45;7.57;;;;;;;25.45;46.02;95235.16;5093501;28;20854;-79
2023/07/14 05:03:48;;;;;;;13.05;7.50;;;;;;;25.44;46.25;95222.38;5089230;28;20514;-78
2023/07/14 05:06:14;;;;;;;11.35;7.63;;;;;;;25.50;46.09;95237.16;5103151;28;20055;-79
2023/07/14 05:08:39;;;;;;;13.63;7.05;;;;;;;25.54;45.99;95248.88;5102369;28;20020;-78
2023/07/14 05:11:05;;;;;;;12.95;8.18;;;;;;;25.54;46.49;95251.69;5102451;28;20066;-78
2023/07/14 05:13:30;;;;;;;12.63;7.72;;;;;;;25.60;46.87;95249.56;5102171;28;20059;-78
2023/07/14 05:15:56;;;;;;;12.13;7.50;;;;;;;25.65;46.65;95254.38;5087234;28;20051;-78
2023/07/14 05:18:22;;;;;;;11.10;7.53;;;;;;;25.70;45.75;95247.16;5088873;28;20452;-78
2023/07/14 05:20:48;;;;;;;11.45;7.07;;;;;;;25.77;46.69;95249.41;5105523;28;20028;-79
2023/07/14 05:23:13;;;;;;;11.82;7.55;;;;;;;25.74;45.88;95252.50;5089812;28;20028;-78
2023/07/14 05:25:38;;;;;;;10.82;6.97;;;;;;;25.79;46.48;95251.69;5089732;28;20020;-79
2023/07/14 05:28:04;;;;;;;13.40;7.43;;;;;;;25.77;46.92;95263.47;5089922;28;20013;-77
2023/07/14 05:30:30;;;;;;;11.48;7.30;;;;;;;25.72;47.96;95261.47;5105591;28;20101;-78
2023/07/14 05:32:55;;;;;;;11.75;7.47;;;;;;;25.79;48.41;95251.69;5088699;28;20479;-79
2023/07/14 05:35:21;;;;;;;12.55;7.20;;;;;;;25.80;48.73;95262.41;5088098;28;20066;-79
2023/07/14 05:37:46;;;;;;;10.70;7.53;;;;;;;25.85;48.59;95258.00;5105504;28;20024;-77
2023/07/14 05:40:14;;;;;;;15.38;8.23;;;;;;;25.84;48.75;95245.97;5105187;28;20024;-78
2023/07/14 05:42:39;;;;;;;11.82;7.28;;;;;;;26.01;48.73;95262.66;5089357;28;20539;-78
2023/07/14 05:45:06;;;;;;;11.05;7.25;;;;;;;26.07;48.50;95254.91;5089717;28;20055;-78
2023/07/14 05:47:35;;;;;;;11.55;7.50;;;;;;;26.12;48.63;95259.72;5091221;28;20031;-80
2023/07/14 05:50:01;;;;;;;9.32;6.60;;;;;;;26.20;48.68;95257.03;5105765;28;20035;-79
2023/07/14 05:52:26;;;;;;;10.65;6.97;;;;;;;26.22;48.96;95257.28;5087706;28;20421;-79
2023/07/14 05:54:52;;;;;;;10.60;7.07;;;;;;;26.28;49.10;95260.03;5088180;28;20032;-79
2023/07/14 05:57:17;;;;;;;12.43;7.32;;;;;;;26.31;49.27;95264.56;5105073;28;20028;-79
2023/07/14 05:59:43;;;;;;;9.95;6.07;;;;;;;26.45;49.42;95260.56;5104560;28;20562;-79
2023/07/14 06:02:13;;;;;;;12.38;7.18;;;;;;;26.44;49.35;95268.28;5087615;28;20020;-79
2023/07/14 06:04:39;;;;;;;14.15;7.65;;;;;;;26.50;49.42;95258.97;5104578;28;20032;-79
2023/07/14 06:07:06;;;;;;;11.13;7.03;;;;;;;26.60;49.20;95258.03;5089254;28;20484;-79
2023/07/14 06:09:37;;;;;;;11.65;6.72;;;;;;;26.66;49.26;95253.06;5087209;28;20522;-78
2023/07/14 06:12:05;;;;;;;10.15;7.00;;;;;;;26.74;48.91;95253.97;5087822;28;20106;-79
2023/07/14 06:14:32;;;;;;;10.80;7.35;;;;;;;26.80;48.40;95253.88;5086919;28;20074;-79
2023/07/14 06:16:58;;;;;;;8.63;7.72;;;;;;;26.87;48.03;95250.44;5087884;28;20217;-79
2023/07/14 06:19:24;;;;;;;9.50;6.50;;;;;;;26.91;48.03;95245.25;5104074;28;20105;-79
2023/07/14 06:21:49;;;;;;;13.00;7.32;;;;;;;26.98;47.92;95241.78;5088596;28;20482;-79
2023/07/14 06:24:15;;;;;;;11.13;7.25;;;;;;;27.06;47.45;95252.41;5088148;28;20490;-79
2023/07/14 06:26:40;;;;;;;12.50;7.40;;;;;;;27.07;47.61;95253.97;5103655;28;20103;-79
2023/07/14 06:29:05;;;;;;;9.18;7.32;;;;;;;27.09;47.70;95254.97;5088710;28;20023;-79
2023/07/14 06:31:31;;;;;;;10.00;7.53;;;;;;;27.22;47.29;95251.41;5088134;28;20425;-79
2023/07/14 06:33:56;;;;;;;13.32;7.72;;;;;;;27.24;47.31;95252.41;5088461;28;20043;-79
2023/07/14 06:36:21;;;;;;;11.32;7.43;;;;;;;27.32;46.87;95248.94;5103595;28;20058;-79
2023/07/14 06:38:47;;;;;;;12.82;7.93;;;;;;;27.36;46.67;95252.19;5107469;28;20062;-79
2023/07/14 06:41:12;;;;;;;12.85;7.68;;;;;;;27.40;46.68;95256.19;5088882;28;20016;-79
2023/07/14 06:43:38;;;;;;;12.77;7.80;;;;;;;27.46;46.33;95254.03;5088220;28;20020;-78
2023/07/14 06:46:04;;;;;;;14.90;7.85;;;;;;;27.51;46.88;95252.41;5088516;28;20016;-79
2023/07/14 06:48:29;;;;;;;9.27;7.82;;;;;;;27.56;46.73;95250.78;5088075;28;20107;-79
2023/07/14 06:50:55;;;;;;;13.35;8.00;;;;;;;27.60;46.66;95254.06;5103635;28;20028;-79
2023/07/14 06:53:20;;;;;;;12.23;7.57;;;;;;;27.62;46.45;95257.84;5087844;28;20020;-78
2023/07/14 06:55:46;;;;;;;12.10;7.50;;;;;;;27.73;46.29;95254.81;5088225;28;20048;-79
2023/07/14 06:58:13;;;;;;;12.93;7.95;;;;;;;27.81;45.92;95251.34;5087818;28;20078;-79
2023/07/14 07:00:38;;;;;;;11.98;7.57;;;;;;;27.88;45.97;95251.47;5086339;28;20032;-79
2023/07/14 07:03:04;;;;;;;14.38;7.80;;;;;;;27.91;45.85;95247.53;5086435;28;20031;-79
2023/07/14 07:05:33;;;;;;;15.27;7.50;;;;;;;27.95;46.14;95252.88;5087097;28;20028;-79
2023/07/14 07:07:58;;;;;;;11.13;8.20;;;;;;;27.97;45.85;95251.00;5103552;28;20092;-79
2023/07/14 07:10:24;;;;;;;11.02;7.22;;;;;;;28.00;45.59;95249.16;5086766;28;20448;-77
2023/07/14 07:12:50;;;;;;;9.77;7.57;;;;;;;27.89;45.62;95250.16;5087100;28;20039;-77
2023/07/14 07:15:15;;;;;;;12.82;7.68;;;;;;;27.77;45.56;95252.44;5086979;28;20040;-76
2023/07/14 07:17:41;;;;;;;12.43;7.80;;;;;;;27.83;46.28;95249.50;5085853;28;20039;-80
2023/07/14 07:20:08;;;;;;;10.82;7.75;;;;;;;27.93;46.37;95255.44;5086289;28;20107;-81
2023/07/14 07:22:37;;;;;;;12.85;7.53;;;;;;;27.99;45.71;95254.06;5085056;28;20547;-79
2023/07/14 07:25:03;;;;;;;10.93;7.35;;;;;;;28.01;45.83;95247.84;5087538;28;20048;-81
2023/07/14 07:27:28;;;;;;;11.18;7.72;;;;;;;28.11;45.63;95251.75;5087233;28;20040;-80
2023/07/14 07:29:54;;;;;;;12.90;8.43;;;;;;;28.15;45.56;95248.56;5090370;28;20020;-80
2023/07/14 07:32:19;;;;;;;12.70;7.50;;;;;;;28.15;45.58;95252.16;5086196;28;20036;-81
2023/07/14 07:34:45;;;;;;;14.15;8.07;;;;;;;28.19;45.74;95243.34;5103136;28;20024;-80
2023/07/14 07:37:10;;;;;;;13.20;8.50;;;;;;;28.29;45.86;95253.66;5086800;28;20139;-79
2023/07/14 07:39:37;;;;;;;13.63;8.10;;;;;;;28.36;45.78;95249.44;5085627;28;20020;-77
2023/07/14 07:42:03;;;;;;;11.65;7.07;;;;;;;28.43;44.80;95245.91;5085346;28;20476;-78
2023/07/14 07:44:29;;;;;;;13.38;7.13;;;;;;;28.40;44.60;95247.03;5067584;28;20429;-79
2023/07/14 07:46:54;;;;;;;10.43;6.75;;;;;;;28.49;44.45;95237.31;5085344;28;20028;-77
2023/07/14 07:49:20;;;;;;;13.70;7.40;;;;;;;28.54;44.72;95233.59;5086234;28;20029;-79
2023/07/14 07:51:45;;;;;;;13.63;8.77;;;;;;;28.61;44.56;95235.75;5086558;28;20119;-78
2023/07/14 07:54:11;;;;;;;11.50;6.90;;;;;;;28.74;44.51;95229.28;5086123;28;20075;-77
2023/07/14 07:56:36;;;;;;;11.88;7.45;;;;;;;28.76;44.41;95230.25;5086242;28;20482;-77
2023/07/14 07:59:02;;;;;;;10.38;6.90;;;;;;;28.88;43.82;95235.63;5091301;28;20107;-80
2023/07/14 08:01:28;;;;;;;12.82;6.43;;;;;;;28.96;43.25;95225.16;5101724;28;20054;-79
2023/07/14 08:03:53;;;;;;;11.70;6.68;;;;;;;29.03;43.52;95227.31;5086421;28;20063;-76
2023/07/14 08:06:21;;;;;;;10.38;6.53;;;;;;;29.03;43.53;95216.75;5085594;28;20026;-76
2023/07/14 08:08:47;;;;;;;10.30;7.10;;;;;;;29.14;43.35;95212.13;5086717;28;20446;-79
2023/07/14 08:11:13;;;;;;;12.30;7.03;;;;;;;29.18;42.69;95213.25;5085196;28;20032;-79
2023/07/14 08:13:39;;;;;;;9.98;6.75;;;;;;;29.25;42.92;95217.50;5102383;28;20418;-79
2023/07/14 08:16:05;;;;;;;11.48;7.13;;;;;;;29.32;43.24;95202.63;5084657;28;20044;-76
2023/07/14 08:18:31;;;;;;;14.52;7.00;;;;;;;29.41;42.71;95204.19;5086154;28;20047;-76
2023/07/14 08:20:58;;;;;;;13.15;6.95;;;;;;;29.45;42.86;95204.59;5088095;28;20020;-77
2023/07/14 08:23:24;;;;;;;11.90;6.60;;;;;;;29.56;42.35;95209.97;5084656;28;20031;-75
2023/07/14 08:26:00;;;;;;;8.95;6.47;;;;;;;29.61;42.51;95200.56;5086322;28;20484;-75
2023/07/14 08:28:26;;;;;;;10.90;6.25;;;;;;;29.67;42.38;95206.06;5101690;28;20730;-78
2023/07/14 08:30:54;;;;;;;12.43;6.60;;;;;;;29.74;41.48;95200.44;5084925;28;20032;-77
2023/07/14 08:33:21;;;;;;;11.90;5.97;;;;;;;29.75;41.88;95199.13;5085780;28;20043;-77
2023/07/14 08:35:50;;;;;;;11.48;6.47;;;;;;;29.80;42.25;95203.09;5086374;28;20495;-80
2023/07/14 08:38:16;;;;;;;10.70;6.07;;;;;;;29.86;41.99;95201.63;5088384;28;20127;-81
2023/07/14 08:40:51;;;;;;;14.73;7.38;;;;;;;29.94;41.44;95203.75;5095229;28;20503;-81
2023/07/14 08:44:01;;;;;;;11.38;6.72;;;;;;;30.04;40.95;95204.72;5112376;28;20123;-81
2023/07/14 08:46:41;;;;;;;11.95;7.10;;;;;;;30.12;40.52;95199.88;5074844;28;20040;-82
2023/07/14 08:49:50;;;;;;;16.75;7.38;;;;;;;30.18;40.35;95191.22;5102367;28;20029;-81
2023/07/14 08:52:36;;;;;;;14.23;7.53;;;;;;;30.28;39.05;95198.63;5087637;28;20040;-79
2023/07/14 08:55:04;;;;;;;11.15;7.45;;;;;;;30.34;39.36;95196.38;5088797;28;20518;-79
2023/07/14 08:57:35;;;;;;;12.02;7.80;;;;;;;30.44;39.89;95195.81;5089808;28;20035;-77
2023/07/14 09:00:03;;;;;;;11.23;6.55;;;;;;;30.52;39.78;95202.28;5106062;28;20020;-78
2023/07/14 09:02:39;;;;;;;22.42;8.00;;;;;;;30.64;40.00;95198.50;5105143;28;20096;-78
2023/07/14 09:05:15;;;;;;;9.65;6.13;;;;;;;30.76;39.02;95186.81;5090784;28;20016;-77
2023/07/14 09:07:41;;;;;;;10.57;5.88;;;;;;;30.87;38.96;95186.47;5105321;28;20028;-77
2023/07/14 09:10:10;;;;;;;10.68;6.68;;;;;;;30.99;38.66;95178.31;5089958;28;20093;-78
2023/07/14 09:12:49;;;;;;;12.20;7.35;;;;;;;31.11;38.62;95170.94;5106058;28;20047;-77
2023/07/14 09:15:22;;;;;;;14.30;7.00;;;;;;;31.24;38.38;95175.66;5105338;28;20044;-78
2023/07/14 09:18:09;;;;;;;9.15;6.15;;;;;;;31.40;38.05;95172.25;5106207;28;20020;-77
2023/07/14 09:20:48;;;;;;;12.68;6.32;;;;;;;31.50;37.80;95166.75;5088103;28;20370;-76
2023/07/14 09:23:19;;;;;;;9.77;6.25;;;;;;;31.63;37.67;95165.75;5088885;28;20105;-77
2023/07/14 09:26:10;;;;;;;10.90;6.82;;;;;;;31.77;37.49;95167.03;5105698;28;20031;-77
2023/07/14 09:28:42;;;;;;;11.48;6.63;;;;;;;31.92;35.91;95171.94;5104581;28;20124;-77
2023/07/14 09:31:38;;;;;;;12.60;6.40;;;;;;;31.95;36.14;95157.34;5089733;28;20541;-78
2023/07/14 09:34:11;;;;;;;11.02;6.63;;;;;;;32.07;35.83;95151.97;5088926;28;20047;-77
2023/07/14 09:36:38;;;;;;;8.90;6.32;;;;;;;32.21;35.21;95156.06;5104678;28;20024;-77
2023/07/14 09:39:07;;;;;;;10.10;5.97;;;;;;;32.30;35.28;95151.84;5105110;28;20111;-78
2023/07/14 09:41:33;;;;;;;12.10;6.50;;;;;;;32.37;34.91;95153.91;5087210;28;20060;-78
2023/07/14 09:43:59;;;;;;;16.75;6.75;;;;;;;32.43;34.64;95151.59;5089446;28;20115;-79
2023/07/14 09:46:25;;;;;;;10.60;6.78;;;;;;;32.55;35.35;95159.69;5088278;28;20020;-78
2023/07/14 09:49:03;;;;;;;11.25;6.90;;;;;;;32.67;34.56;95144.41;5105066;28;20046;-78
2023/07/14 09:51:28;;;;;;;8.20;6.10;;;;;;;32.87;34.09;95138.97;5086818;28;20081;-78
2023/07/14 09:53:59;;;;;;;10.07;6.75;;;;;;;32.97;33.94;95142.69;5088815;28;20028;-78
2023/07/14 09:56:30;;;;;;;10.63;7.78;;;;;;;33.14;33.28;95141.97;5088907;28;20455;-78
2023/07/14 09:59:02;;;;;;;11.80;6.53;;;;;;;33.15;33.84;95144.25;5088454;28;20020;-77
2023/07/14 10:01:29;;;;;;;12.55;6.47;;;;;;;33.25;33.45;95138.66;5088431;28;20028;-77
2023/07/14 10:03:59;;;;;;;11.00;6.60;;;;;;;33.37;33.16;95130.38;5090057;28;20024;-77
2023/07/14 10:06:26;;;;;;;13.15;6.72;;;;;;;33.47;32.68;95125.53;5088026;28;20020;-77
2023/07/14 10:09:04;;;;;;;9.70;6.20;;;;;;;33.58;33.12;95125.03;5087379;28;20024;-78
2023/07/14 10:11:41;;;;;;;8.52;6.30;;;;;;;33.73;32.92;95119.19;5088440;28;20477;-77
2023/07/14 10:14:46;;;;;;;9.52;6.32;;;;;;;33.83;32.52;95122.81;5089907;28;20108;-77
2023/07/14 10:17:23;;;;;;;12.52;6.20;;;;;;;33.99;31.69;95129.13;5085733;28;20044;-77
2023/07/14 10:19:50;;;;;;;10.45;5.60;;;;;;;34.07;31.55;95115.53;5084352;28;20028;-78
2023/07/14 10:22:19;;;;;;;10.45;6.45;;;;;;;34.19;30.80;95112.16;5068726;28;20039;-78
2023/07/14 10:24:55;;;;;;;9.75;6.38;;;;;;;34.28;31.35;95115.03;5051887;28;20020;-78
2023/07/14 10:27:25;;;;;;;8.77;6.35;;;;;;;34.50;31.42;95118.19;5086190;28;20042;-78
2023/07/14 10:29:59;;;;;;;10.35;6.25;;;;;;;34.58;31.00;95115.97;5068335;28;20468;-76
2023/07/14 10:32:42;;;;;;;10.95;6.22;;;;;;;34.67;30.93;95115.25;5068773;28;20576;-76
2023/07/14 10:35:13;;;;;;;14.52;6.78;;;;;;;34.75;30.81;95104.47;5068168;28;20036;-76
2023/07/14 10:37:43;;;;;;;9.32;6.15;;;;;;;34.94;29.89;95103.06;5085220;28;20028;-76
2023/07/14 10:40:14;;;;;;;10.13;6.35;;;;;;;35.07;30.23;95091.97;5085800;28;20484;-75
2023/07/14 10:43:05;;;;;;;9.85;6.15;;;;;;;35.20;29.93;95098.59;5067621;28;20020;-76
2023/07/14 10:45:32;;;;;;;10.50;6.28;;;;;;;35.24;29.62;95088.25;5068115;28;20032;-76
2023/07/14 10:48:04;;;;;;;8.40;6.13;;;;;;;35.38;29.42;95095.03;5084759;28;20059;-76
2023/07/14 10:50:44;;;;;;;10.18;6.43;;;;;;;35.50;29.42;95089.50;5067585;28;20032;-76
2023/07/14 10:53:29;;;;;;;10.70;5.93;;;;;;;35.59;28.76;95085.88;5072132;28;20038;-76
2023/07/14 10:55:59;;;;;;;10.18;6.20;;;;;;;35.66;29.08;95089.94;5086294;28;20028;-76
2023/07/14 10:58:37;;;;;;;13.80;6.63;;;;;;;35.75;28.48;95080.59;5103161;28;20544;-74
2023/07/14 11:01:09;;;;;;;12.23;6.20;;;;;;;35.83;28.55;95086.91;5102743;28;20036;-76
2023/07/14 11:03:48;;;;;;;11.87;7.13;;;;;;;35.93;28.31;95080.47;5085758;28;20024;-76
2023/07/14 11:06:13;;;;;;;10.77;6.20;;;;;;;35.96;27.62;95085.75;5103641;28;20278;-75
2023/07/14 11:08:38;;;;;;;11.93;6.93;;;;;;;36.11;27.30;95090.34;5086185;28;20379;-76
2023/07/14 11:11:10;;;;;;;9.45;6.47;;;;;;;36.20;27.69;95081.00;5087244;28;20561;-76
2023/07/14 11:13:59;;;;;;;9.20;6.38;;;;;;;36.28;27.58;95077.97;5086542;28;20904;-76
2023/07/14 11:16:30;;;;;;;12.65;6.30;;;;;;;36.37;27.45;95077.94;5086519;28;20130;-77
2023/07/14 11:19:01;;;;;;;10.70;6.32;;;;;;;36.40;26.63;95071.03;5103206;28;20478;-77
2023/07/14 11:21:39;;;;;;;12.45;6.53;;;;;;;36.37;26.96;95075.09;5101850;28;20036;-76
2023/07/14 11:24:20;;;;;;;13.38;6.00;;;;;;;36.34;27.61;95069.81;5102906;28;20028;-76
2023/07/14 11:26:55;;;;;;;9.93;6.40;;;;;;;36.43;26.81;95066.97;5102128;28;20030;-76
2023/07/14 11:29:21;;;;;;;8.52;5.60;;;;;;;36.43;27.42;95066.97;5086647;28;20884;-76
2023/07/14 11:31:50;;;;;;;12.38;6.53;;;;;;;36.49;27.38;95069.50;5085629;28;20020;-77
2023/07/14 11:34:25;;;;;;;12.38;6.35;;;;;;;36.58;26.96;95074.41;5101566;28;20466;-77
2023/07/14 11:37:15;;;;;;;10.05;5.57;;;;;;;36.62;26.53;95066.13;5087034;28;20040;-76